Time;durP1;ratioP1;P1;durP2;ratioP2;P2;SDS_P1;SDS_P2;PMS_P1;PMS_P2;Temp;Humidity;BMP_temperature;BMP_pressure;BME280_temperature;BME280_humidity;BME280_pressure;Samples;Min_cycle;Max_cycle;Signal;HPM_P1;HPM_P2
2022/05/22 00:01:28;;;;;;;3.00;2.70;;;;;;;;;;5051619;28;20235;-78
2022/05/22 00:03:55;;;;;;;3.77;2.93;;;;;;;;;;5051915;28;20198;-78
2022/05/22 00:06:22;;;;;;;2.87;2.63;;;;;;;;;;5051700;28;20212;-78
2022/05/22 00:08:49;;;;;;;3.33;3.03;;;;;;;;;;5052343;28;20305;-77
2022/05/22 00:11:16;;;;;;;4.87;3.37;;;;;;;;;;5051752;28;20198;-77
2022/05/22 00:13:44;;;;;;;3.50;2.70;;;;;;;;;;5052114;28;20635;-77
2022/05/22 00:18:57;;;;;;;3.87;3.23;;;;;;;;;;5051703;28;20682;-78
2022/05/22 00:21:24;;;;;;;5.97;3.20;;;;;;;;;;5051431;28;20682;-78
2022/05/22 00:23:51;;;;;;;4.53;3.40;;;;;;;;;;5051741;27;20198;-77
2022/05/22 00:26:19;;;;;;;4.97;3.20;;;;;;;;;;5051305;28;20201;-78
2022/05/22 00:28:46;;;;;;;3.57;3.27;;;;;;;;;;5051594;28;20202;-78
2022/05/22 00:31:14;;;;;;;4.00;3.17;;;;;;;;;;5051234;28;20202;-78
2022/05/22 00:33:41;;;;;;;4.17;3.27;;;;;;;;;;5051552;28;20254;-77
2022/05/22 00:36:10;;;;;;;3.53;3.23;;;;;;;;;;5051247;28;20229;-78
2022/05/22 00:38:37;;;;;;;4.67;3.57;;;;;;;;;;5051698;28;20209;-78
2022/05/22 00:41:06;;;;;;;6.43;3.20;;;;;;;;;;5051283;28;20252;-77
2022/05/22 00:43:37;;;;;;;3.40;3.10;;;;;;;;;;5051097;28;20205;-78
2022/05/22 00:46:06;;;;;;;2.93;2.73;;;;;;;;;;5051169;28;20716;-77
2022/05/22 00:48:34;;;;;;;3.50;3.20;;;;;;;;;;5051602;28;20240;-78
2022/05/22 00:51:04;;;;;;;7.53;3.77;;;;;;;;;;5050945;28;20289;-78
2022/05/22 00:53:34;;;;;;;3.67;3.37;;;;;;;;;;5051378;28;20201;-77
2022/05/22 00:56:01;;;;;;;4.57;3.43;;;;;;;;;;5050772;28;20701;-77
2022/05/22 00:58:30;;;;;;;4.13;3.27;;;;;;;;;;5051028;28;20201;-78
2022/05/22 01:00:57;;;;;;;6.17;3.73;;;;;;;;;;5050677;28;20286;-77
2022/05/22 01:03:28;;;;;;;5.73;3.40;;;;;;;;;;5051295;28;20206;-77
2022/05/22 01:05:57;;;;;;;3.07;2.70;;;;;;;;;;5050882;28;20204;-78
2022/05/22 01:08:24;;;;;;;3.23;2.60;;;;;;;;;;5051026;28;20208;-77
2022/05/22 01:10:57;;;;;;;3.23;2.87;;;;;;;;;;5050847;28;20193;-78
2022/05/22 01:13:27;;;;;;;4.77;2.50;;;;;;;;;;5050988;28;20643;-78
2022/05/22 01:15:54;;;;;;;2.90;2.63;;;;;;;;;;5050838;28;20190;-78
2022/05/22 01:18:22;;;;;;;3.43;2.50;;;;;;;;;;5050660;28;20194;-77
2022/05/22 01:20:51;;;;;;;5.40;2.90;;;;;;;;;;5050499;28;20258;-77
2022/05/22 01:23:21;;;;;;;3.63;2.60;;;;;;;;;;5050742;28;20198;-77
2022/05/22 01:25:48;;;;;;;6.33;2.60;;;;;;;;;;5050507;28;20605;-78
2022/05/22 01:28:17;;;;;;;2.70;2.50;;;;;;;;;;5050538;28;20688;-77
2022/05/22 01:30:44;;;;;;;3.87;2.50;;;;;;;;;;5050340;28;20237;-77
2022/05/22 01:33:12;;;;;;;3.53;3.13;;;;;;;;;;5050499;28;20244;-77
2022/05/22 01:35:39;;;;;;;3.97;2.80;;;;;;;;;;5050354;28;20198;-78
2022/05/22 01:38:06;;;;;;;3.07;2.77;;;;;;;;;;5050213;28;20232;-78
2022/05/22 01:40:35;;;;;;;3.10;2.50;;;;;;;;;;5050527;28;20194;-78
2022/05/22 01:43:02;;;;;;;3.10;2.30;;;;;;;;;;5050632;28;20206;-77
2022/05/22 01:45:30;;;;;;;3.63;2.50;;;;;;;;;;5050023;28;20674;-77
2022/05/22 01:47:58;;;;;;;4.33;2.70;;;;;;;;;;5050251;28;20658;-78
2022/05/22 01:50:25;;;;;;;2.97;2.47;;;;;;;;;;5050238;28;20288;-77
2022/05/22 01:52:53;;;;;;;6.47;2.60;;;;;;;;;;5050183;28;20198;-78
2022/05/22 01:55:21;;;;;;;3.03;2.83;;;;;;;;;;5049893;28;20198;-78
2022/05/22 01:57:49;;;;;;;3.30;2.50;;;;;;;;;;5049938;28;20261;-78
2022/05/22 02:00:19;;;;;;;2.50;2.30;;;;;;;;;;5050065;28;20282;-78
2022/05/22 02:02:47;;;;;;;2.20;2.10;;;;;;;;;;5050180;28;20738;-78
2022/05/22 02:05:16;;;;;;;2.73;2.53;;;;;;;;;;5049992;28;20206;-77
2022/05/22 02:10:30;;;;;;;5.10;2.47;;;;;;;;;;5049964;28;20181;-77
2022/05/22 02:13:00;;;;;;;4.37;2.77;;;;;;;;;;5049576;28;20198;-77
2022/05/22 02:15:27;;;;;;;2.70;2.47;;;;;;;;;;5050034;28;20198;-77
2022/05/22 02:17:55;;;;;;;2.77;2.57;;;;;;;;;;5049660;28;20316;-77
2022/05/22 02:20:23;;;;;;;3.93;2.70;;;;;;;;;;5049892;28;20202;-77
2022/05/22 02:22:57;;;;;;;3.77;2.93;;;;;;;;;;5049408;28;20688;-77
2022/05/22 02:25:25;;;;;;;4.73;2.20;;;;;;;;;;5049687;28;20197;-77
2022/05/22 02:27:53;;;;;;;3.37;2.80;;;;;;;;;;5049522;28;20198;-77
2022/05/22 02:30:23;;;;;;;3.73;2.37;;;;;;;;;;5049870;28;20285;-77
2022/05/22 02:32:50;;;;;;;2.67;2.47;;;;;;;;;;5049170;28;20314;-77
2022/05/22 02:35:18;;;;;;;3.10;2.50;;;;;;;;;;5049553;28;20293;-77
2022/05/22 02:37:46;;;;;;;3.27;2.93;;;;;;;;;;5049142;28;20236;-77
2022/05/22 02:40:15;;;;;;;2.50;2.30;;;;;;;;;;5049605;28;20198;-77
2022/05/22 02:42:43;;;;;;;5.37;2.60;;;;;;;;;;5049024;28;20229;-77
2022/05/22 02:45:12;;;;;;;3.17;2.63;;;;;;;;;;5049401;28;20204;-77
2022/05/22 02:47:41;;;;;;;3.43;2.60;;;;;;;;;;5049219;28;20198;-77
2022/05/22 02:50:10;;;;;;;3.47;2.63;;;;;;;;;;5049337;28;20233;-78
2022/05/22 02:52:38;;;;;;;3.40;2.53;;;;;;;;;;5049099;28;20205;-78
2022/05/22 02:55:06;;;;;;;3.53;2.43;;;;;;;;;;5049856;27;20202;-77
2022/05/22 02:57:34;;;;;;;4.17;2.43;;;;;;;;;;5048947;28;20706;-77
2022/05/22 03:00:01;;;;;;;2.80;2.60;;;;;;;;;;5048633;28;20235;-77
2022/05/22 03:02:29;;;;;;;4.93;2.67;;;;;;;;;;5048898;28;20677;-77
2022/05/22 03:04:57;;;;;;;7.17;2.30;;;;;;;;;;5049295;28;20223;-77
2022/05/22 03:07:24;;;;;;;2.87;2.53;;;;;;;;;;5047770;28;20190;-77
2022/05/22 03:09:52;;;;;;;2.70;2.50;;;;;;;;;;5048917;28;20583;-77
2022/05/22 03:12:21;;;;;;;2.97;2.57;;;;;;;;;;5048760;28;20198;-77
2022/05/22 03:14:51;;;;;;;3.43;2.97;;;;;;;;;;5048952;28;20219;-77
2022/05/22 03:17:19;;;;;;;2.73;2.50;;;;;;;;;;5048535;28;20784;-77
2022/05/22 03:19:46;;;;;;;2.83;2.00;;;;;;;;;;5048747;28;20198;-77
2022/05/22 03:22:15;;;;;;;4.43;2.83;;;;;;;;;;5048663;28;20208;-77
2022/05/22 03:24:42;;;;;;;3.67;2.47;;;;;;;;;;5048655;28;20194;-77
2022/05/22 03:27:11;;;;;;;3.33;2.47;;;;;;;;;;5048553;28;20197;-77
2022/05/22 03:29:39;;;;;;;5.30;2.30;;;;;;;;;;5048858;28;20579;-77
2022/05/22 03:32:08;;;;;;;3.70;2.30;;;;;;;;;;5048500;28;20208;-77
2022/05/22 03:34:36;;;;;;;4.83;2.57;;;;;;;;;;5048563;28;20581;-77
2022/05/22 03:37:04;;;;;;;4.80;2.20;;;;;;;;;;5048254;28;20225;-77
2022/05/22 03:39:33;;;;;;;2.13;2.00;;;;;;;;;;5048687;28;20202;-77
2022/05/22 03:42:01;;;;;;;2.80;2.30;;;;;;;;;;5048469;28;20252;-77
2022/05/22 03:44:28;;;;;;;6.83;2.20;;;;;;;;;;5048217;28;20244;-77
2022/05/22 03:46:55;;;;;;;2.60;2.40;;;;;;;;;;5048224;28;20209;-77
2022/05/22 03:49:22;;;;;;;2.10;1.83;;;;;;;;;;5048490;28;20745;-77
2022/05/22 03:51:50;;;;;;;4.03;2.40;;;;;;;;;;5047701;28;20578;-77
2022/05/22 03:54:17;;;;;;;2.33;2.10;;;;;;;;;;5048440;28;20202;-77
2022/05/22 03:56:46;;;;;;;2.83;2.50;;;;;;;;;;5048069;28;20216;-77
2022/05/22 03:59:13;;;;;;;2.10;2.00;;;;;;;;;;5048659;28;20254;-77
2022/05/22 04:01:40;;;;;;;6.70;2.23;;;;;;;;;;5047677;28;20616;-77
2022/05/22 04:04:07;;;;;;;3.43;2.80;;;;;;;;;;5048244;28;20194;-77
2022/05/22 04:06:34;;;;;;;4.50;2.10;;;;;;;;;;5048321;28;20217;-77
2022/05/22 04:09:01;;;;;;;3.97;1.80;;;;;;;;;;5047958;28;20670;-77
2022/05/22 04:11:28;;;;;;;2.37;2.17;;;;;;;;;;5048236;28;20209;-77
2022/05/22 04:13:57;;;;;;;4.93;2.10;;;;;;;;;;5048107;28;20201;-77
2022/05/22 04:16:24;;;;;;;4.93;1.67;;;;;;;;;;5047988;28;20220;-77
2022/05/22 04:18:51;;;;;;;3.00;2.40;;;;;;;;;;5048622;28;20225;-77
2022/05/22 04:21:18;;;;;;;4.07;2.40;;;;;;;;;;5051483;28;20209;-77
2022/05/22 04:26:31;;;;;;;2.40;2.10;;;;;;;;;;5051093;28;20186;-77
2022/05/22 04:28:59;;;;;;;4.30;1.93;;;;;;;;;;5051604;28;20198;-77
2022/05/22 04:31:27;;;;;;;3.47;2.00;;;;;;;;;;5051014;28;20288;-77
2022/05/22 04:33:54;;;;;;;4.73;2.57;;;;;;;;;;5063668;27;20262;-77
2022/05/22 04:36:21;;;;;;;5.00;2.03;;;;;;;;;;5037493;28;20199;-77
2022/05/22 04:38:48;;;;;;;2.00;1.90;;;;;;;;;;5056437;27;20217;-78
2022/05/22 04:41:17;;;;;;;3.87;1.83;;;;;;;;;;5156580;27;20202;-77
2022/05/22 04:43:44;;;;;;;2.47;1.50;;;;;;;;;;5156042;27;20237;-77
2022/05/22 04:46:13;;;;;;;6.27;3.00;;;;;;;;;;5156431;27;20194;-77
2022/05/22 04:48:40;;;;;;;1.97;1.80;;;;;;;;;;5155465;27;20182;-77
2022/05/22 04:51:08;;;;;;;2.10;1.90;;;;;;;;;;5155512;27;20208;-77
2022/05/22 04:53:35;;;;;;;2.10;1.77;;;;;;;;;;5156145;27;20198;-77
2022/05/22 04:56:02;;;;;;;2.10;1.80;;;;;;;;;;5155726;27;20663;-77
2022/05/22 04:58:30;;;;;;;4.47;2.43;;;;;;;;;;5156124;27;20221;-77
2022/05/22 05:00:57;;;;;;;2.87;1.63;;;;;;;;;;5155885;27;20229;-77
2022/05/22 05:03:25;;;;;;;3.33;1.80;;;;;;;;;;5156129;27;20201;-77
2022/05/22 05:05:55;;;;;;;4.10;1.80;;;;;;;;;;5155278;27;20194;-77
2022/05/22 05:08:23;;;;;;;3.60;1.73;;;;;;;;;;5156635;27;20219;-77
2022/05/22 05:10:51;;;;;;;1.87;1.73;;;;;;;;;;5155838;27;20201;-78
2022/05/22 05:13:19;;;;;;;2.80;2.00;;;;;;;;;;5155752;27;20658;-77
2022/05/22 05:15:47;;;;;;;2.33;1.97;;;;;;;;;;5155815;27;20257;-77
2022/05/22 05:18:14;;;;;;;4.37;2.03;;;;;;;;;;5107531;27;20635;-77
2022/05/22 05:20:46;;;;;;;4.83;2.03;;;;;;;;;;5043498;28;20267;-77
2022/05/22 05:23:13;;;;;;;6.77;2.53;;;;;;;;;;5046536;28;20608;-77
2022/05/22 05:25:40;;;;;;;5.37;1.90;;;;;;;;;;5031937;28;20851;-77
2022/05/22 05:28:08;;;;;;;2.40;2.00;;;;;;;;;;5030592;28;20195;-77
2022/05/22 05:30:35;;;;;;;4.63;1.70;;;;;;;;;;5029429;28;20207;-77
2022/05/22 05:33:02;;;;;;;2.00;1.70;;;;;;;;;;5030901;28;20199;-77
2022/05/22 05:35:29;;;;;;;6.93;2.00;;;;;;;;;;5030444;28;20567;-77
2022/05/22 05:37:58;;;;;;;1.73;1.60;;;;;;;;;;5030751;28;20219;-77
2022/05/22 05:40:25;;;;;;;4.47;1.67;;;;;;;;;;5030388;28;20199;-77
2022/05/22 05:42:52;;;;;;;5.17;2.10;;;;;;;;;;5030643;28;20202;-77
2022/05/22 05:45:19;;;;;;;8.27;2.37;;;;;;;;;;5030332;28;20199;-77
2022/05/22 05:47:47;;;;;;;1.73;1.63;;;;;;;;;;5030238;28;20207;-77
2022/05/22 05:50:15;;;;;;;3.97;1.60;;;;;;;;;;5030633;28;20210;-77
2022/05/22 05:52:43;;;;;;;2.93;1.40;;;;;;;;;;5029961;28;20194;-77
2022/05/22 05:55:12;;;;;;;4.83;1.80;;;;;;;;;;5030489;28;20230;-77
2022/05/22 05:57:39;;;;;;;4.37;1.70;;;;;;;;;;5030489;28;20230;-77
2022/05/22 06:00:10;;;;;;;4.30;1.97;;;;;;;;;;5029909;28;20206;-77
2022/05/22 06:02:37;;;;;;;6.03;1.73;;;;;;;;;;5030631;28;20191;-77
2022/05/22 06:05:06;;;;;;;1.87;1.70;;;;;;;;;;5029804;28;20202;-77
2022/05/22 06:07:33;;;;;;;4.87;2.37;;;;;;;;;;5030459;28;20656;-77
2022/05/22 06:10:01;;;;;;;6.43;1.97;;;;;;;;;;5030001;28;20206;-77
2022/05/22 06:12:30;;;;;;;3.40;1.50;;;;;;;;;;5053075;27;20317;-77
2022/05/22 06:14:57;;;;;;;4.90;1.60;;;;;;;;;;5049848;28;20204;-77
2022/05/22 06:17:30;;;;;;;6.30;2.07;;;;;;;;;;5049456;28;20670;-77
2022/05/22 06:19:58;;;;;;;1.70;1.50;;;;;;;;;;5049790;28;20242;-77
2022/05/22 06:22:26;;;;;;;1.77;1.67;;;;;;;;;;5049551;28;20255;-77
2022/05/22 06:24:54;;;;;;;4.80;1.83;;;;;;;;;;5049901;28;20586;-77
2022/05/22 06:27:22;;;;;;;4.53;1.77;;;;;;;;;;5049669;28;20731;-78
2022/05/22 06:29:50;;;;;;;12.63;1.80;;;;;;;;;;5050038;28;20202;-78
2022/05/22 06:32:19;;;;;;;4.27;2.03;;;;;;;;;;5049399;28;20237;-78
2022/05/22 06:34:47;;;;;;;4.43;1.83;;;;;;;;;;5049562;28;20588;-78
2022/05/22 06:37:16;;;;;;;5.17;2.40;;;;;;;;;;5049412;28;20201;-78
2022/05/22 06:39:53;;;;;;;3.17;1.80;;;;;;;;;;5049716;28;20605;-78
2022/05/22 06:42:23;;;;;;;1.77;1.63;;;;;;;;;;5049285;28;20185;-78
2022/05/22 06:44:57;;;;;;;3.80;2.60;;;;;;;;;;5049494;28;20519;-78
2022/05/22 06:47:26;;;;;;;6.10;1.37;;;;;;;;;;5049650;28;20294;-78
2022/05/22 06:49:54;;;;;;;2.80;2.00;;;;;;;;;;5049163;28;20194;-78
2022/05/22 06:52:21;;;;;;;3.77;1.73;;;;;;;;;;5049501;28;20205;-78
2022/05/22 06:54:49;;;;;;;2.07;1.70;;;;;;;;;;5049556;28;20578;-78
2022/05/22 06:57:18;;;;;;;3.97;1.47;;;;;;;;;;5048795;28;20198;-78
2022/05/22 06:59:46;;;;;;;2.40;1.60;;;;;;;;;;5049173;28;20236;-78
2022/05/22 07:02:16;;;;;;;7.40;2.60;;;;;;;;;;5048784;28;20237;-78
2022/05/22 07:04:43;;;;;;;2.07;1.27;;;;;;;;;;5049275;28;20206;-78
2022/05/22 07:07:10;;;;;;;3.03;1.93;;;;;;;;;;5048818;28;20194;-78
2022/05/22 07:09:38;;;;;;;2.83;1.50;;;;;;;;;;5049291;28;20198;-78
2022/05/22 07:12:09;;;;;;;4.60;1.20;;;;;;;;;;5048907;28;20198;-78
2022/05/22 07:14:37;;;;;;;4.17;1.90;;;;;;;;;;5048924;28;20198;-78
2022/05/22 07:17:05;;;;;;;2.03;1.60;;;;;;;;;;5048763;28;20198;-78
2022/05/22 07:19:37;;;;;;;6.20;2.00;;;;;;;;;;5048855;28;20222;-78
2022/05/22 07:22:05;;;;;;;1.50;1.40;;;;;;;;;;5048579;28;20182;-78
2022/05/22 07:24:33;;;;;;;2.37;1.50;;;;;;;;;;5048979;28;20775;-78
2022/05/22 07:27:00;;;;;;;1.53;1.40;;;;;;;;;;5048672;28;20194;-78
2022/05/22 07:29:27;;;;;;;1.93;1.33;;;;;;;;;;5048917;28;20194;-78
2022/05/22 07:31:56;;;;;;;1.67;1.47;;;;;;;;;;5048890;28;20710;-78
2022/05/22 07:34:25;;;;;;;2.13;1.40;;;;;;;;;;5048745;28;20198;-78
2022/05/22 07:36:57;;;;;;;2.80;1.60;;;;;;;;;;5048345;28;20722;-78
2022/05/22 07:39:24;;;;;;;2.73;1.53;;;;;;;;;;5048927;28;20210;-78
2022/05/22 07:41:51;;;;;;;2.67;1.30;;;;;;;;;;5048413;28;20202;-78
2022/05/22 07:44:19;;;;;;;2.37;1.47;;;;;;;;;;5048949;28;20198;-78
2022/05/22 07:46:46;;;;;;;1.50;1.40;;;;;;;;;;5048166;28;20202;-78
2022/05/22 07:50:16;;;;;;;1.43;1.30;;;;;;;;;;5048504;28;20204;-78
2022/05/22 07:52:05;;;;;;;2.63;1.47;;;;;;;;;;5048305;27;20206;-78
2022/05/22 07:54:35;;;;;;;7.53;1.37;;;;;;;;;;5049984;28;20181;-78
2022/05/22 07:57:02;;;;;;;2.80;1.40;;;;;;;;;;5051775;28;20197;-78
2022/05/22 07:59:30;;;;;;;2.13;1.30;;;;;;;;;;5051889;28;20226;-78
2022/05/22 08:01:57;;;;;;;8.47;1.80;;;;;;;;;;5051630;28;20316;-78
2022/05/22 08:04:24;;;;;;;2.30;1.60;;;;;;;;;;5052104;28;20202;-78
2022/05/22 08:06:51;;;;;;;2.63;1.40;;;;;;;;;;5051965;28;20194;-78
2022/05/22 08:09:20;;;;;;;1.60;1.47;;;;;;;;;;5051970;28;20202;-78
2022/05/22 08:11:47;;;;;;;3.37;1.83;;;;;;;;;;5051789;28;20249;-78
2022/05/22 08:14:15;;;;;;;5.27;1.67;;;;;;;;;;5051821;28;20666;-78
2022/05/22 08:16:43;;;;;;;2.50;1.67;;;;;;;;;;5051776;28;20201;-79
2022/05/22 08:19:10;;;;;;;7.57;2.57;;;;;;;;;;5051559;28;20584;-79
2022/05/22 08:21:37;;;;;;;4.37;1.40;;;;;;;;;;5051569;28;20198;-78
2022/05/22 08:24:06;;;;;;;3.00;1.80;;;;;;;;;;5051934;28;20549;-78
2022/05/22 08:26:34;;;;;;;2.20;1.40;;;;;;;;;;5051464;28;20198;-78
2022/05/22 08:29:02;;;;;;;4.20;1.77;;;;;;;;;;5051493;28;20194;-77
2022/05/22 08:31:29;;;;;;;3.67;1.70;;;;;;;;;;5051430;28;20194;-77
2022/05/22 08:33:56;;;;;;;3.23;1.57;;;;;;;;;;5051714;28;20721;-78
2022/05/22 08:36:24;;;;;;;1.60;1.50;;;;;;;;;;5051413;28;20217;-78
2022/05/22 08:38:51;;;;;;;2.50;1.57;;;;;;;;;;5051277;28;20226;-78
2022/05/22 08:41:22;;;;;;;2.23;1.33;;;;;;;;;;5050960;28;20204;-78
2022/05/22 08:43:53;;;;;;;1.50;1.40;;;;;;;;;;5051870;28;20207;-78
2022/05/22 08:46:24;;;;;;;2.93;1.37;;;;;;;;;;5051413;28;20197;-78
2022/05/22 08:48:56;;;;;;;1.50;1.40;;;;;;;;;;5051220;28;20187;-78
2022/05/22 08:51:33;;;;;;;3.63;1.80;;;;;;;;;;5050783;28;20186;-78
2022/05/22 08:54:11;;;;;;;4.87;2.20;;;;;;;;;;5051181;28;20186;-78
2022/05/22 08:59:26;;;;;;;2.00;1.60;;;;;;;;;;5051106;28;20294;-79
2022/05/22 09:01:59;;;;;;;2.60;1.20;;;;;;;;;;5050345;28;20241;-78
2022/05/22 09:04:33;;;;;;;4.30;2.23;;;;;;;;;;5051126;28;20205;-78
2022/05/22 09:07:07;;;;;;;3.43;1.70;;;;;;;;;;5049846;28;20554;-78
2022/05/22 09:09:36;;;;;;;3.17;1.93;;;;;;;;;;5051278;28;20196;-78
2022/05/22 09:12:17;;;;;;;4.13;2.03;;;;;;;;;;5050221;28;20198;-78
2022/05/22 09:14:54;;;;;;;2.40;1.53;;;;;;;;;;5050704;28;20647;-78
2022/05/22 09:17:25;;;;;;;2.03;1.93;;;;;;;;;;5050503;28;20225;-78
2022/05/22 09:19:58;;;;;;;4.53;1.63;;;;;;;;;;5050748;28;20300;-79
2022/05/22 09:22:31;;;;;;;4.70;1.83;;;;;;;;;;5050556;28;20190;-76
2022/05/22 09:25:08;;;;;;;3.07;1.63;;;;;;;;;;5050873;28;20190;-79
2022/05/22 09:27:45;;;;;;;2.40;1.77;;;;;;;;;;5050293;28;20186;-78
2022/05/22 09:30:18;;;;;;;1.93;1.63;;;;;;;;;;5050699;28;20193;-78
2022/05/22 09:32:53;;;;;;;2.03;1.70;;;;;;;;;;5050340;28;20185;-78
2022/05/22 09:35:29;;;;;;;2.47;1.40;;;;;;;;;;5050457;28;20239;-78
2022/05/22 09:38:21;;;;;;;3.40;1.87;;;;;;;;;;5050550;28;20186;-78
2022/05/22 09:40:50;;;;;;;1.97;1.50;;;;;;;;;;5052762;28;20281;-78
2022/05/22 09:43:40;;;;;;;4.77;1.87;;;;;;;;;;5050472;28;20190;-78
2022/05/22 09:46:19;;;;;;;3.57;1.80;;;;;;;;;;5049905;28;20190;-78
2022/05/22 09:48:56;;;;;;;1.60;1.47;;;;;;;;;;5050756;28;20185;-78
2022/05/22 09:51:30;;;;;;;2.10;1.80;;;;;;;;;;5050121;28;20182;-78
2022/05/22 09:54:09;;;;;;;5.47;1.87;;;;;;;;;;5050209;28;20227;-78
2022/05/22 09:56:42;;;;;;;3.27;1.77;;;;;;;;;;5050179;28;20646;-79
2022/05/22 09:59:27;;;;;;;2.30;1.57;;;;;;;;;;5050628;28;20574;-78
2022/05/22 10:01:58;;;;;;;2.33;2.03;;;;;;;;;;5049845;28;20273;-78
2022/05/22 10:04:32;;;;;;;2.23;1.67;;;;;;;;;;5050005;28;20273;-78
2022/05/22 10:07:05;;;;;;;4.27;2.07;;;;;;;;;;5050326;28;20195;-78
2022/05/22 10:09:42;;;;;;;2.27;2.00;;;;;;;;;;5050050;28;20190;-78
2022/05/22 10:12:20;;;;;;;2.57;2.37;;;;;;;;;;5050022;28;20189;-79
2022/05/22 10:14:54;;;;;;;3.77;2.00;;;;;;;;;;5050397;28;20186;-78
2022/05/22 10:17:33;;;;;;;3.73;1.80;;;;;;;;;;5049501;28;20272;-79
2022/05/22 10:20:04;;;;;;;2.47;1.80;;;;;;;;;;5049987;28;20208;-79
2022/05/22 10:22:39;;;;;;;2.47;2.00;;;;;;;;;;5049576;28;20190;-79
2022/05/22 10:25:23;;;;;;;2.60;1.90;;;;;;;;;;5050247;28;20186;-79
2022/05/22 10:27:57;;;;;;;1.87;1.77;;;;;;;;;;5049788;28;20186;-79
2022/05/22 10:30:29;;;;;;;3.70;1.67;;;;;;;;;;5049737;27;20181;-79
2022/05/22 10:33:02;;;;;;;2.20;1.87;;;;;;;;;;5049625;28;20197;-78
2022/05/22 10:35:33;;;;;;;4.87;1.80;;;;;;;;;;5050055;28;20218;-79
2022/05/22 10:38:04;;;;;;;3.13;2.17;;;;;;;;;;5049622;28;20277;-78
2022/05/22 10:42:45;;;;;;;2.63;2.43;;;;;;;;;;5049556;28;20210;-78
2022/05/22 10:43:18;;;;;;;2.00;1.80;;;;;;;;;;5049869;28;20305;-79
2022/05/22 10:45:45;;;;;;;3.23;2.50;;;;;;;;;;5049324;28;20205;-79
2022/05/22 10:48:19;;;;;;;5.07;2.13;;;;;;;;;;5049429;28;20204;-79
2022/05/22 10:50:54;;;;;;;2.93;2.00;;;;;;;;;;5049097;28;20220;-79
2022/05/22 10:53:27;;;;;;;2.40;2.00;;;;;;;;;;5049628;28;20201;-79
2022/05/22 10:56:01;;;;;;;5.63;2.10;;;;;;;;;;5049207;28;20296;-79
2022/05/22 10:58:31;;;;;;;4.53;2.00;;;;;;;;;;5049185;28;20186;-79
2022/05/22 11:00:59;;;;;;;3.33;1.87;;;;;;;;;;5048869;28;20238;-79
2022/05/22 11:03:30;;;;;;;2.13;1.90;;;;;;;;;;5049401;28;20288;-79
2022/05/22 11:05:59;;;;;;;3.57;1.77;;;;;;;;;;5049186;28;20178;-79
2022/05/22 11:08:30;;;;;;;4.13;1.77;;;;;;;;;;5049613;28;20255;-79
2022/05/22 11:11:03;;;;;;;2.20;2.00;;;;;;;;;;5048971;28;20204;-79
2022/05/22 11:13:30;;;;;;;3.53;2.57;;;;;;;;;;5048948;27;20198;-79
2022/05/22 11:15:57;;;;;;;1.83;1.73;;;;;;;;;;5048942;28;20233;-78
2022/05/22 11:18:26;;;;;;;2.50;1.67;;;;;;;;;;5049014;28;20198;-79
2022/05/22 11:20:57;;;;;;;3.10;1.63;;;;;;;;;;5048501;28;20225;-79
2022/05/22 11:23:37;;;;;;;1.97;1.87;;;;;;;;;;5049047;28;20186;-79
2022/05/22 11:26:12;;;;;;;1.70;1.43;;;;;;;;;;5048891;28;20196;-79
2022/05/22 11:28:57;;;;;;;1.97;1.73;;;;;;;;;;5048089;28;20196;-78
2022/05/22 11:31:37;;;;;;;6.10;2.00;;;;;;;;;;5048578;28;20609;-79
2022/05/22 11:34:16;;;;;;;3.33;2.17;;;;;;;;;;5048906;28;20192;-79
2022/05/22 11:36:53;;;;;;;2.33;1.77;;;;;;;;;;5048632;28;20242;-79
2022/05/22 11:39:32;;;;;;;1.87;1.70;;;;;;;;;;5048475;28;20585;-78
2022/05/22 11:42:04;;;;;;;3.73;1.60;;;;;;;;;;5048599;28;20276;-78
2022/05/22 11:44:49;;;;;;;3.60;1.80;;;;;;;;;;5049088;28;20214;-78
2022/05/22 11:47:37;;;;;;;5.73;2.10;;;;;;;;;;5048616;28;20221;-78
2022/05/22 11:50:11;;;;;;;5.50;3.03;;;;;;;;;;5048714;28;20178;-78
2022/05/22 11:52:57;;;;;;;2.30;2.10;;;;;;;;;;5048659;28;20186;-78
2022/05/22 11:55:36;;;;;;;2.53;2.33;;;;;;;;;;5048720;28;20182;-78
2022/05/22 11:58:13;;;;;;;2.73;2.30;;;;;;;;;;5048406;28;20565;-78
2022/05/22 12:00:46;;;;;;;3.10;1.60;;;;;;;;;;5048171;28;20709;-78
2022/05/22 12:03:47;;;;;;;2.80;2.03;;;;;;;;;;5048744;28;20235;-78
2022/05/22 12:06:29;;;;;;;3.93;2.23;;;;;;;;;;5048121;28;20205;-78
2022/05/22 12:09:10;;;;;;;5.77;4.50;;;;;;;;;;5048538;28;20227;-78
2022/05/22 12:11:54;;;;;;;3.27;1.53;;;;;;;;;;5048342;28;20269;-79
2022/05/22 12:14:27;;;;;;;3.33;2.30;;;;;;;;;;5048367;28;20658;-78
2022/05/22 12:16:58;;;;;;;4.20;2.30;;;;;;;;;;5048007;28;20230;-78
2022/05/22 12:19:31;;;;;;;4.43;2.20;;;;;;;;;;5048517;28;20243;-78
2022/05/22 12:22:05;;;;;;;3.07;1.73;;;;;;;;;;5048457;28;20208;-79
2022/05/22 12:24:41;;;;;;;3.10;2.80;;;;;;;;;;5048015;28;20680;-79
2022/05/22 12:27:15;;;;;;;4.50;3.27;;;;;;;;;;5048061;28;20196;-79
2022/05/22 12:29:49;;;;;;;4.07;2.57;;;;;;;;;;5048439;28;20183;-78
2022/05/22 12:32:21;;;;;;;12.37;2.27;;;;;;;;;;5048444;28;20186;-78
2022/05/22 12:34:51;;;;;;;1.87;1.57;;;;;;;;;;5048478;28;20186;-78
2022/05/22 12:37:27;;;;;;;4.23;1.60;;;;;;;;;;5048183;28;20209;-78
2022/05/22 12:40:01;;;;;;;7.60;1.73;;;;;;;;;;5048810;28;20216;-78
2022/05/22 12:42:31;;;;;;;3.83;1.77;;;;;;;;;;5051331;28;20192;-78
2022/05/22 12:44:59;;;;;;;5.13;1.50;;;;;;;;;;5051192;28;20626;-78
2022/05/22 12:47:35;;;;;;;2.23;1.67;;;;;;;;;;5051092;28;20198;-78
2022/05/22 12:50:04;;;;;;;2.07;1.97;;;;;;;;;;5051544;28;20186;-78
2022/05/22 12:52:32;;;;;;;2.17;1.97;;;;;;;;;;5051330;28;20198;-78
2022/05/22 12:55:05;;;;;;;2.63;1.57;;;;;;;;;;5050982;28;20233;-78
2022/05/22 12:57:32;;;;;;;3.40;2.17;;;;;;;;;;5051238;28;20224;-78
2022/05/22 13:00:01;;;;;;;2.80;2.10;;;;;;;;;;5051039;28;20226;-78
2022/05/22 13:02:34;;;;;;;4.20;1.70;;;;;;;;;;5011407;28;20203;-78
2022/05/22 13:05:02;;;;;;;2.47;2.27;;;;;;;;;;5011518;28;20183;-78
2022/05/22 13:07:33;;;;;;;2.23;1.67;;;;;;;;;;5011322;28;20653;-78
2022/05/22 13:10:23;;;;;;;7.60;2.53;;;;;;;;;;5011521;28;20210;-78
2022/05/22 13:12:56;;;;;;;2.33;1.90;;;;;;;;;;5011558;28;20270;-78
2022/05/22 13:15:26;;;;;;;2.93;2.13;;;;;;;;;;5011477;28;20210;-78
2022/05/22 13:18:07;;;;;;;2.60;1.77;;;;;;;;;;5011525;28;20199;-78
2022/05/22 13:20:48;;;;;;;3.77;1.90;;;;;;;;;;5011618;28;20250;-78
2022/05/22 13:23:28;;;;;;;2.67;1.83;;;;;;;;;;5011245;28;20184;-78
2022/05/22 13:25:58;;;;;;;2.33;1.40;;;;;;;;;;5010782;28;20188;-78
2022/05/22 13:28:28;;;;;;;1.90;1.70;;;;;;;;;;5011150;28;20677;-78
2022/05/22 13:30:58;;;;;;;1.80;1.60;;;;;;;;;;5011241;28;20206;-78
2022/05/22 13:33:26;;;;;;;3.23;1.83;;;;;;;;;;5011205;28;20198;-78
2022/05/22 13:35:56;;;;;;;2.23;2.13;;;;;;;;;;5011166;28;20755;-78
2022/05/22 13:38:23;;;;;;;3.50;2.30;;;;;;;;;;5011077;28;20194;-78
2022/05/22 13:40:55;;;;;;;3.10;1.63;;;;;;;;;;5009549;28;20333;-78
2022/05/22 13:43:52;;;;;;;9.70;1.93;;;;;;;;;;5010226;28;20203;-78
2022/05/22 13:46:48;;;;;;;1.93;1.83;;;;;;;;;;5010671;28;20230;-78
2022/05/22 13:49:40;;;;;;;1.97;1.70;;;;;;;;;;5005054;28;20210;-78
2022/05/22 13:55:08;;;;;;;1.87;1.77;;;;;;;;;;4991264;28;20254;-78
2022/05/22 13:57:38;;;;;;;3.03;1.90;;;;;;;;;;4990695;28;20637;-78
2022/05/22 14:00:13;;;;;;;2.50;1.63;;;;;;;;;;4991541;28;20235;-78
2022/05/22 14:02:49;;;;;;;3.53;1.93;;;;;;;;;;5030412;28;20263;-78
2022/05/22 14:05:17;;;;;;;3.37;1.93;;;;;;;;;;5040790;28;20206;-78
2022/05/22 14:07:49;;;;;;;1.90;1.80;;;;;;;;;;5050195;28;20206;-78
2022/05/22 14:10:17;;;;;;;2.63;1.70;;;;;;;;;;5049923;28;20189;-78
2022/05/22 14:12:46;;;;;;;3.40;2.13;;;;;;;;;;5050160;28;20209;-79
2022/05/22 14:15:17;;;;;;;2.80;1.90;;;;;;;;;;5049938;28;20194;-78
2022/05/22 14:17:44;;;;;;;5.07;1.70;;;;;;;;;;5049831;28;20567;-78
2022/05/22 14:20:18;;;;;;;8.60;1.60;;;;;;;;;;5049833;28;20697;-78
2022/05/22 14:22:47;;;;;;;3.43;1.80;;;;;;;;;;5049680;28;20194;-78
2022/05/22 14:25:20;;;;;;;3.23;1.60;;;;;;;;;;5039821;28;20271;-78
2022/05/22 14:27:49;;;;;;;2.83;1.90;;;;;;;;;;5038426;28;20206;-78
2022/05/22 14:30:23;;;;;;;1.90;1.80;;;;;;;;;;5035419;28;20289;-78
2022/05/22 14:32:52;;;;;;;2.00;1.80;;;;;;;;;;5036197;28;20203;-78
2022/05/22 14:35:22;;;;;;;3.77;1.77;;;;;;;;;;5029934;28;20202;-78
2022/05/22 14:37:50;;;;;;;3.77;1.50;;;;;;;;;;5029689;28;20191;-78
2022/05/22 14:40:20;;;;;;;4.43;2.03;;;;;;;;;;5029331;28;20230;-78
2022/05/22 14:42:54;;;;;;;2.77;1.70;;;;;;;;;;5038269;28;20245;-78
2022/05/22 14:45:26;;;;;;;3.87;1.50;;;;;;;;;;5029797;28;20617;-78
2022/05/22 14:47:54;;;;;;;2.67;1.93;;;;;;;;;;5029259;28;20187;-78
2022/05/22 14:50:22;;;;;;;2.73;2.00;;;;;;;;;;5029777;28;20205;-78
2022/05/22 14:52:53;;;;;;;3.93;1.60;;;;;;;;;;5029418;28;20259;-78
2022/05/22 14:55:25;;;;;;;5.13;1.60;;;;;;;;;;5029297;28;20191;-78
2022/05/22 14:57:55;;;;;;;3.03;1.60;;;;;;;;;;5029504;28;20191;-78
2022/05/22 15:00:26;;;;;;;2.70;1.47;;;;;;;;;;5029026;28;20957;-78
2022/05/22 15:02:56;;;;;;;1.37;1.27;;;;;;;;;;5032240;28;20198;-78
2022/05/22 15:05:25;;;;;;;9.03;2.50;;;;;;;;;;5047016;28;20196;-78
2022/05/22 15:07:54;;;;;;;2.80;1.67;;;;;;;;;;5047823;28;20288;-78
2022/05/22 15:10:25;;;;;;;3.07;1.37;;;;;;;;;;5040740;28;20222;-78
2022/05/22 15:12:53;;;;;;;4.53;1.80;;;;;;;;;;5029205;28;20753;-79
2022/05/22 15:15:32;;;;;;;3.40;1.50;;;;;;;;;;5029401;28;20194;-78
2022/05/22 15:18:05;;;;;;;3.63;2.03;;;;;;;;;;5029489;28;20190;-78